sensor_id;sensor_type;location;lat;lon;timestamp;P1;durP1;ratioP1;P2;durP2;ratioP2
12900;SDS011;6518;50.930;5.344;2022-07-10T00:02:06;5.28;;;2.30;;
12900;SDS011;6518;50.930;5.344;2022-07-10T00:04:33;6.00;;;2.60;;
12900;SDS011;6518;50.930;5.344;2022-07-10T00:07:00;6.15;;;2.28;;
12900;SDS011;6518;50.930;5.344;2022-07-10T00:09:30;5.30;;;2.30;;
12900;SDS011;6518;50.930;5.344;2022-07-10T00:11:57;7.35;;;2.65;;
12900;SDS011;6518;50.930;5.344;2022-07-10T00:14:24;4.13;;;2.42;;
12900;SDS011;6518;50.930;5.344;2022-07-10T00:16:51;5.03;;;2.42;;
12900;SDS011;6518;50.930;5.344;2022-07-10T00:19:18;4.32;;;2.08;;
12900;SDS011;6518;50.930;5.344;2022-07-10T00:21:45;5.45;;;2.40;;
12900;SDS011;6518;50.930;5.344;2022-07-10T00:24:12;6.35;;;2.40;;
12900;SDS011;6518;50.930;5.344;2022-07-10T00:26:40;6.10;;;2.55;;
12900;SDS011;6518;50.930;5.344;2022-07-10T00:29:07;4.93;;;2.20;;
12900;SDS011;6518;50.930;5.344;2022-07-10T00:31:34;5.43;;;2.63;;
12900;SDS011;6518;50.930;5.344;2022-07-10T00:34:01;7.50;;;3.15;;
12900;SDS011;6518;50.930;5.344;2022-07-10T00:36:28;7.25;;;3.05;;
12900;SDS011;6518;50.930;5.344;2022-07-10T00:38:55;9.55;;;2.97;;
12900;SDS011;6518;50.930;5.344;2022-07-10T00:41:23;5.72;;;2.95;;
12900;SDS011;6518;50.930;5.344;2022-07-10T00:43:55;6.28;;;3.20;;
12900;SDS011;6518;50.930;5.344;2022-07-10T00:46:23;7.50;;;3.10;;
12900;SDS011;6518;50.930;5.344;2022-07-10T00:48:50;7.10;;;3.13;;
12900;SDS011;6518;50.930;5.344;2022-07-10T00:51:17;8.15;;;3.45;;
12900;SDS011;6518;50.930;5.344;2022-07-10T00:53:46;7.60;;;2.85;;
12900;SDS011;6518;50.930;5.344;2022-07-10T00:56:15;5.53;;;2.97;;
12900;SDS011;6518;50.930;5.344;2022-07-10T00:58:43;4.97;;;2.85;;
12900;SDS011;6518;50.930;5.344;2022-07-10T01:01:11;4.28;;;2.60;;
12900;SDS011;6518;50.930;5.344;2022-07-10T01:03:38;6.95;;;2.85;;
12900;SDS011;6518;50.930;5.344;2022-07-10T01:06:06;5.22;;;2.75;;
12900;SDS011;6518;50.930;5.344;2022-07-10T01:08:33;3.45;;;2.35;;
12900;SDS011;6518;50.930;5.344;2022-07-10T01:11:01;7.68;;;2.72;;
12900;SDS011;6518;50.930;5.344;2022-07-10T01:13:29;6.70;;;2.47;;
12900;SDS011;6518;50.930;5.344;2022-07-10T01:15:57;5.18;;;2.40;;
12900;SDS011;6518;50.930;5.344;2022-07-10T01:18:29;9.38;;;2.80;;
12900;SDS011;6518;50.930;5.344;2022-07-10T01:21:02;8.13;;;2.40;;
12900;SDS011;6518;50.930;5.344;2022-07-10T01:23:29;6.97;;;2.63;;
12900;SDS011;6518;50.930;5.344;2022-07-10T01:25:57;5.60;;;2.30;;
12900;SDS011;6518;50.930;5.344;2022-07-10T01:28:26;4.03;;;2.08;;
12900;SDS011;6518;50.930;5.344;2022-07-10T01:30:54;5.33;;;2.40;;
12900;SDS011;6518;50.930;5.344;2022-07-10T01:33:22;6.63;;;2.20;;
12900;SDS011;6518;50.930;5.344;2022-07-10T01:35:49;7.28;;;2.80;;
12900;SDS011;6518;50.930;5.344;2022-07-10T01:38:17;7.75;;;2.45;;
12900;SDS011;6518;50.930;5.344;2022-07-10T01:40:44;6.53;;;2.80;;
12900;SDS011;6518;50.930;5.344;2022-07-10T01:43:11;7.60;;;2.80;;
12900;SDS011;6518;50.930;5.344;2022-07-10T01:45:39;5.53;;;2.33;;
12900;SDS011;6518;50.930;5.344;2022-07-10T01:48:08;6.47;;;2.90;;
12900;SDS011;6518;50.930;5.344;2022-07-10T01:50:35;4.83;;;2.37;;
12900;SDS011;6518;50.930;5.344;2022-07-10T01:53:03;5.87;;;2.70;;
12900;SDS011;6518;50.930;5.344;2022-07-10T01:55:33;6.13;;;2.63;;
12900;SDS011;6518;50.930;5.344;2022-07-10T01:58:01;6.35;;;2.20;;
12900;SDS011;6518;50.930;5.344;2022-07-10T02:00:28;9.07;;;2.57;;
12900;SDS011;6518;50.930;5.344;2022-07-10T02:02:56;5.57;;;2.13;;
12900;SDS011;6518;50.930;5.344;2022-07-10T02:05:40;5.55;;;2.35;;
12900;SDS011;6518;50.930;5.344;2022-07-10T02:08:08;4.97;;;2.30;;
12900;SDS011;6518;50.930;5.344;2022-07-10T02:10:40;5.17;;;2.20;;
12900;SDS011;6518;50.930;5.344;2022-07-10T02:13:07;5.93;;;2.60;;
12900;SDS011;6518;50.930;5.344;2022-07-10T02:15:40;8.02;;;2.40;;
12900;SDS011;6518;50.930;5.344;2022-07-10T02:18:08;8.77;;;2.70;;
12900;SDS011;6518;50.930;5.344;2022-07-10T02:20:36;4.87;;;2.30;;
12900;SDS011;6518;50.930;5.344;2022-07-10T02:23:04;5.50;;;2.60;;
12900;SDS011;6518;50.930;5.344;2022-07-10T02:25:33;6.23;;;2.30;;
12900;SDS011;6518;50.930;5.344;2022-07-10T02:28:05;8.80;;;2.80;;
12900;SDS011;6518;50.930;5.344;2022-07-10T02:30:36;5.53;;;2.20;;
12900;SDS011;6518;50.930;5.344;2022-07-10T02:33:05;5.23;;;2.33;;
12900;SDS011;6518;50.930;5.344;2022-07-10T02:35:33;5.97;;;2.30;;
12900;SDS011;6518;50.930;5.344;2022-07-10T02:38:00;6.55;;;2.47;;
12900;SDS011;6518;50.930;5.344;2022-07-10T02:40:27;4.43;;;2.10;;
12900;SDS011;6518;50.930;5.344;2022-07-10T02:42:55;8.33;;;2.67;;
12900;SDS011;6518;50.930;5.344;2022-07-10T02:45:24;8.02;;;2.80;;
12900;SDS011;6518;50.930;5.344;2022-07-10T02:47:52;6.10;;;2.40;;
12900;SDS011;6518;50.930;5.344;2022-07-10T02:50:20;6.93;;;2.30;;
12900;SDS011;6518;50.930;5.344;2022-07-10T02:52:47;5.77;;;2.37;;
12900;SDS011;6518;50.930;5.344;2022-07-10T02:55:15;6.43;;;2.33;;
12900;SDS011;6518;50.930;5.344;2022-07-10T02:57:43;7.83;;;2.70;;
12900;SDS011;6518;50.930;5.344;2022-07-10T03:00:11;6.90;;;2.03;;
12900;SDS011;6518;50.930;5.344;2022-07-10T03:02:40;8.30;;;2.63;;
12900;SDS011;6518;50.930;5.344;2022-07-10T03:05:07;6.60;;;2.30;;
12900;SDS011;6518;50.930;5.344;2022-07-10T03:07:35;6.60;;;2.47;;
12900;SDS011;6518;50.930;5.344;2022-07-10T03:10:02;6.53;;;2.20;;
12900;SDS011;6518;50.930;5.344;2022-07-10T03:12:30;5.97;;;2.40;;
12900;SDS011;6518;50.930;5.344;2022-07-10T03:14:58;4.33;;;2.20;;
12900;SDS011;6518;50.930;5.344;2022-07-10T03:17:25;8.77;;;2.50;;
12900;SDS011;6518;50.930;5.344;2022-07-10T03:19:54;6.47;;;2.40;;
12900;SDS011;6518;50.930;5.344;2022-07-10T03:22:22;5.60;;;2.60;;
12900;SDS011;6518;50.930;5.344;2022-07-10T03:24:52;6.97;;;2.23;;
12900;SDS011;6518;50.930;5.344;2022-07-10T03:27:21;5.93;;;2.30;;
12900;SDS011;6518;50.930;5.344;2022-07-10T03:29:49;6.15;;;2.58;;
12900;SDS011;6518;50.930;5.344;2022-07-10T03:32:17;5.83;;;2.57;;
12900;SDS011;6518;50.930;5.344;2022-07-10T03:34:45;7.07;;;2.60;;
12900;SDS011;6518;50.930;5.344;2022-07-10T03:37:15;6.77;;;2.30;;
12900;SDS011;6518;50.930;5.344;2022-07-10T03:39:43;6.43;;;2.33;;
12900;SDS011;6518;50.930;5.344;2022-07-10T03:42:11;3.53;;;2.30;;
12900;SDS011;6518;50.930;5.344;2022-07-10T03:44:38;4.77;;;2.70;;
12900;SDS011;6518;50.930;5.344;2022-07-10T03:47:06;8.07;;;3.10;;
12900;SDS011;6518;50.930;5.344;2022-07-10T03:49:35;8.53;;;3.07;;
12900;SDS011;6518;50.930;5.344;2022-07-10T03:52:05;6.63;;;3.77;;
12900;SDS011;6518;50.930;5.344;2022-07-10T03:54:34;5.73;;;2.50;;
12900;SDS011;6518;50.930;5.344;2022-07-10T03:57:03;9.40;;;2.67;;
12900;SDS011;6518;50.930;5.344;2022-07-10T03:59:49;9.90;;;3.30;;
12900;SDS011;6518;50.930;5.344;2022-07-10T04:02:21;6.40;;;2.70;;
12900;SDS011;6518;50.930;5.344;2022-07-10T04:04:48;6.93;;;3.00;;
12900;SDS011;6518;50.930;5.344;2022-07-10T04:07:17;5.83;;;3.00;;
12900;SDS011;6518;50.930;5.344;2022-07-10T04:09:45;6.10;;;2.77;;
12900;SDS011;6518;50.930;5.344;2022-07-10T04:12:12;7.37;;;3.07;;
12900;SDS011;6518;50.930;5.344;2022-07-10T04:14:39;6.73;;;2.77;;
12900;SDS011;6518;50.930;5.344;2022-07-10T04:17:06;4.50;;;2.93;;
12900;SDS011;6518;50.930;5.344;2022-07-10T04:19:33;7.35;;;3.10;;
12900;SDS011;6518;50.930;5.344;2022-07-10T04:22:00;7.97;;;2.90;;
12900;SDS011;6518;50.930;5.344;2022-07-10T04:24:27;8.03;;;3.10;;
12900;SDS011;6518;50.930;5.344;2022-07-10T04:26:56;7.80;;;3.37;;
12900;SDS011;6518;50.930;5.344;2022-07-10T04:29:23;6.70;;;3.47;;
12900;SDS011;6518;50.930;5.344;2022-07-10T04:31:50;7.33;;;3.73;;
12900;SDS011;6518;50.930;5.344;2022-07-10T04:34:17;6.83;;;4.00;;
12900;SDS011;6518;50.930;5.344;2022-07-10T04:36:44;8.90;;;4.47;;
12900;SDS011;6518;50.930;5.344;2022-07-10T04:39:11;8.95;;;3.92;;
12900;SDS011;6518;50.930;5.344;2022-07-10T04:41:38;7.47;;;3.87;;
12900;SDS011;6518;50.930;5.344;2022-07-10T04:44:06;10.23;;;4.33;;
12900;SDS011;6518;50.930;5.344;2022-07-10T04:46:33;4.53;;;3.60;;
12900;SDS011;6518;50.930;5.344;2022-07-10T04:49:00;5.87;;;3.43;;
12900;SDS011;6518;50.930;5.344;2022-07-10T04:51:27;7.22;;;3.55;;
12900;SDS011;6518;50.930;5.344;2022-07-10T04:53:54;7.77;;;3.47;;
12900;SDS011;6518;50.930;5.344;2022-07-10T04:56:20;7.18;;;3.47;;
12900;SDS011;6518;50.930;5.344;2022-07-10T04:58:47;6.33;;;3.50;;
12900;SDS011;6518;50.930;5.344;2022-07-10T05:01:16;5.17;;;3.70;;
12900;SDS011;6518;50.930;5.344;2022-07-10T05:03:42;6.88;;;3.67;;
12900;SDS011;6518;50.930;5.344;2022-07-10T05:06:10;9.53;;;3.63;;
12900;SDS011;6518;50.930;5.344;2022-07-10T05:08:37;6.38;;;3.42;;
12900;SDS011;6518;50.930;5.344;2022-07-10T05:11:04;3.90;;;3.10;;
12900;SDS011;6518;50.930;5.344;2022-07-10T05:13:31;9.20;;;3.43;;
12900;SDS011;6518;50.930;5.344;2022-07-10T05:15:58;5.57;;;2.90;;
12900;SDS011;6518;50.930;5.344;2022-07-10T05:18:26;6.67;;;3.43;;
12900;SDS011;6518;50.930;5.344;2022-07-10T05:20:53;4.10;;;3.30;;
12900;SDS011;6518;50.930;5.344;2022-07-10T05:23:20;5.45;;;3.22;;
12900;SDS011;6518;50.930;5.344;2022-07-10T05:25:47;6.57;;;3.30;;
12900;SDS011;6518;50.930;5.344;2022-07-10T05:28:14;6.93;;;3.67;;
12900;SDS011;6518;50.930;5.344;2022-07-10T05:30:41;5.95;;;3.58;;
12900;SDS011;6518;50.930;5.344;2022-07-10T05:33:08;9.05;;;3.75;;
12900;SDS011;6518;50.930;5.344;2022-07-10T05:35:37;8.77;;;3.53;;
12900;SDS011;6518;50.930;5.344;2022-07-10T05:38:03;11.30;;;4.07;;
12900;SDS011;6518;50.930;5.344;2022-07-10T05:40:30;8.70;;;3.55;;
12900;SDS011;6518;50.930;5.344;2022-07-10T05:42:57;5.47;;;3.33;;
12900;SDS011;6518;50.930;5.344;2022-07-10T05:45:25;7.03;;;3.38;;
12900;SDS011;6518;50.930;5.344;2022-07-10T05:47:52;6.57;;;3.60;;
12900;SDS011;6518;50.930;5.344;2022-07-10T05:50:19;6.15;;;3.00;;
12900;SDS011;6518;50.930;5.344;2022-07-10T05:52:48;4.75;;;3.00;;
12900;SDS011;6518;50.930;5.344;2022-07-10T05:55:15;5.35;;;3.33;;
12900;SDS011;6518;50.930;5.344;2022-07-10T05:57:42;9.25;;;3.22;;
12900;SDS011;6518;50.930;5.344;2022-07-10T06:00:09;6.55;;;3.10;;
12900;SDS011;6518;50.930;5.344;2022-07-10T06:02:37;7.75;;;3.30;;
12900;SDS011;6518;50.930;5.344;2022-07-10T06:05:04;6.65;;;2.63;;
12900;SDS011;6518;50.930;5.344;2022-07-10T06:07:31;6.63;;;3.00;;
12900;SDS011;6518;50.930;5.344;2022-07-10T06:10:00;7.25;;;3.13;;
12900;SDS011;6518;50.930;5.344;2022-07-10T06:12:28;5.72;;;2.90;;
12900;SDS011;6518;50.930;5.344;2022-07-10T06:14:55;8.80;;;3.58;;
12900;SDS011;6518;50.930;5.344;2022-07-10T06:17:22;6.25;;;3.30;;
12900;SDS011;6518;50.930;5.344;2022-07-10T06:19:49;5.53;;;2.80;;
12900;SDS011;6518;50.930;5.344;2022-07-10T06:22:16;7.00;;;3.20;;
12900;SDS011;6518;50.930;5.344;2022-07-10T06:24:59;8.48;;;2.42;;
12900;SDS011;6518;50.930;5.344;2022-07-10T06:27:29;6.65;;;2.55;;
12900;SDS011;6518;50.930;5.344;2022-07-10T06:29:56;5.57;;;2.38;;
12900;SDS011;6518;50.930;5.344;2022-07-10T06:32:23;5.50;;;2.28;;
12900;SDS011;6518;50.930;5.344;2022-07-10T06:34:51;4.13;;;2.40;;
12900;SDS011;6518;50.930;5.344;2022-07-10T06:37:18;5.78;;;2.30;;
12900;SDS011;6518;50.930;5.344;2022-07-10T06:39:46;7.68;;;2.42;;
12900;SDS011;6518;50.930;5.344;2022-07-10T06:42:15;7.22;;;2.83;;
12900;SDS011;6518;50.930;5.344;2022-07-10T06:44:42;6.60;;;3.03;;
12900;SDS011;6518;50.930;5.344;2022-07-10T06:47:10;6.93;;;2.70;;
12900;SDS011;6518;50.930;5.344;2022-07-10T06:49:55;5.03;;;2.00;;
12900;SDS011;6518;50.930;5.344;2022-07-10T06:52:22;4.72;;;2.30;;
12900;SDS011;6518;50.930;5.344;2022-07-10T06:54:50;5.70;;;2.28;;
12900;SDS011;6518;50.930;5.344;2022-07-10T06:57:19;6.03;;;2.50;;
12900;SDS011;6518;50.930;5.344;2022-07-10T06:59:46;6.40;;;2.33;;
12900;SDS011;6518;50.930;5.344;2022-07-10T07:02:13;4.93;;;2.10;;
12900;SDS011;6518;50.930;5.344;2022-07-10T07:04:40;5.18;;;1.90;;
12900;SDS011;6518;50.930;5.344;2022-07-10T07:07:07;5.68;;;1.80;;
12900;SDS011;6518;50.930;5.344;2022-07-10T07:09:34;5.75;;;1.98;;
12900;SDS011;6518;50.930;5.344;2022-07-10T07:12:01;5.60;;;2.03;;
12900;SDS011;6518;50.930;5.344;2022-07-10T07:14:30;5.53;;;1.90;;
12900;SDS011;6518;50.930;5.344;2022-07-10T07:16:57;4.88;;;2.00;;
12900;SDS011;6518;50.930;5.344;2022-07-10T07:19:26;6.63;;;1.80;;
12900;SDS011;6518;50.930;5.344;2022-07-10T07:22:13;5.63;;;1.90;;
12900;SDS011;6518;50.930;5.344;2022-07-10T07:24:57;7.38;;;1.92;;
12900;SDS011;6518;50.930;5.344;2022-07-10T07:27:24;5.95;;;1.98;;
12900;SDS011;6518;50.930;5.344;2022-07-10T07:29:53;4.07;;;1.77;;
12900;SDS011;6518;50.930;5.344;2022-07-10T07:32:20;3.72;;;1.85;;
12900;SDS011;6518;50.930;5.344;2022-07-10T07:34:47;5.43;;;1.60;;
12900;SDS011;6518;50.930;5.344;2022-07-10T07:37:14;4.25;;;1.80;;
12900;SDS011;6518;50.930;5.344;2022-07-10T07:39:41;4.22;;;1.67;;
12900;SDS011;6518;50.930;5.344;2022-07-10T07:42:07;5.03;;;1.80;;
12900;SDS011;6518;50.930;5.344;2022-07-10T07:44:34;5.18;;;1.85;;
12900;SDS011;6518;50.930;5.344;2022-07-10T07:47:03;5.95;;;1.58;;
12900;SDS011;6518;50.930;5.344;2022-07-10T07:49:30;7.22;;;1.60;;
12900;SDS011;6518;50.930;5.344;2022-07-10T07:51:57;4.88;;;1.50;;
12900;SDS011;6518;50.930;5.344;2022-07-10T07:54:25;4.20;;;1.70;;
12900;SDS011;6518;50.930;5.344;2022-07-10T07:56:52;4.97;;;1.45;;
12900;SDS011;6518;50.930;5.344;2022-07-10T07:59:19;5.18;;;1.77;;
12900;SDS011;6518;50.930;5.344;2022-07-10T08:01:45;5.82;;;1.70;;
12900;SDS011;6518;50.930;5.344;2022-07-10T08:04:14;6.80;;;1.73;;
12900;SDS011;6518;50.930;5.344;2022-07-10T08:06:40;5.07;;;1.70;;
12900;SDS011;6518;50.930;5.344;2022-07-10T08:09:07;4.43;;;1.70;;
12900;SDS011;6518;50.930;5.344;2022-07-10T08:11:34;4.30;;;1.45;;
12900;SDS011;6518;50.930;5.344;2022-07-10T08:14:01;4.93;;;1.40;;
12900;SDS011;6518;50.930;5.344;2022-07-10T08:16:28;4.72;;;1.60;;
12900;SDS011;6518;50.930;5.344;2022-07-10T08:18:55;5.30;;;1.55;;
12900;SDS011;6518;50.930;5.344;2022-07-10T08:21:23;3.35;;;1.70;;
12900;SDS011;6518;50.930;5.344;2022-07-10T08:23:51;5.28;;;1.60;;
12900;SDS011;6518;50.930;5.344;2022-07-10T08:26:18;3.90;;;1.50;;
12900;SDS011;6518;50.930;5.344;2022-07-10T08:28:45;4.28;;;1.45;;
12900;SDS011;6518;50.930;5.344;2022-07-10T08:31:12;5.07;;;1.60;;
12900;SDS011;6518;50.930;5.344;2022-07-10T08:33:39;6.20;;;1.60;;
12900;SDS011;6518;50.930;5.344;2022-07-10T08:36:06;7.25;;;1.83;;
12900;SDS011;6518;50.930;5.344;2022-07-10T08:38:34;4.10;;;1.60;;
12900;SDS011;6518;50.930;5.344;2022-07-10T08:41:01;5.80;;;1.77;;
12900;SDS011;6518;50.930;5.344;2022-07-10T08:43:31;3.80;;;1.50;;
12900;SDS011;6518;50.930;5.344;2022-07-10T08:45:58;4.68;;;1.50;;
12900;SDS011;6518;50.930;5.344;2022-07-10T08:48:25;7.40;;;1.45;;
12900;SDS011;6518;50.930;5.344;2022-07-10T08:50:53;5.95;;;1.63;;
12900;SDS011;6518;50.930;5.344;2022-07-10T08:53:23;4.38;;;1.42;;
12900;SDS011;6518;50.930;5.344;2022-07-10T08:55:56;4.97;;;1.50;;
12900;SDS011;6518;50.930;5.344;2022-07-10T08:58:23;3.50;;;1.30;;
12900;SDS011;6518;50.930;5.344;2022-07-10T09:00:52;7.88;;;1.90;;
12900;SDS011;6518;50.930;5.344;2022-07-10T09:03:19;7.07;;;1.50;;
12900;SDS011;6518;50.930;5.344;2022-07-10T09:05:46;4.93;;;1.80;;
12900;SDS011;6518;50.930;5.344;2022-07-10T09:08:23;6.18;;;1.30;;
12900;SDS011;6518;50.930;5.344;2022-07-10T09:10:52;4.00;;;1.60;;
12900;SDS011;6518;50.930;5.344;2022-07-10T09:13:20;5.10;;;1.40;;
12900;SDS011;6518;50.930;5.344;2022-07-10T09:15:49;4.47;;;1.42;;
12900;SDS011;6518;50.930;5.344;2022-07-10T09:18:18;3.63;;;1.50;;
12900;SDS011;6518;50.930;5.344;2022-07-10T09:20:45;3.22;;;1.70;;
12900;SDS011;6518;50.930;5.344;2022-07-10T09:23:15;4.88;;;1.80;;
12900;SDS011;6518;50.930;5.344;2022-07-10T09:25:44;4.78;;;1.60;;
12900;SDS011;6518;50.930;5.344;2022-07-10T09:28:12;4.57;;;1.67;;
12900;SDS011;6518;50.930;5.344;2022-07-10T09:30:43;4.72;;;1.88;;
12900;SDS011;6518;50.930;5.344;2022-07-10T09:33:17;4.45;;;1.60;;
12900;SDS011;6518;50.930;5.344;2022-07-10T09:35:56;4.70;;;1.73;;
12900;SDS011;6518;50.930;5.344;2022-07-10T09:41:26;3.55;;;1.50;;
12900;SDS011;6518;50.930;5.344;2022-07-10T09:43:55;3.45;;;1.65;;
12900;SDS011;6518;50.930;5.344;2022-07-10T09:46:24;5.55;;;1.60;;
12900;SDS011;6518;50.930;5.344;2022-07-10T09:49:00;6.43;;;1.90;;
12900;SDS011;6518;50.930;5.344;2022-07-10T09:51:29;4.47;;;1.85;;
12900;SDS011;6518;50.930;5.344;2022-07-10T09:53:59;4.82;;;1.70;;
12900;SDS011;6518;50.930;5.344;2022-07-10T09:56:30;4.72;;;2.28;;
12900;SDS011;6518;50.930;5.344;2022-07-10T09:59:00;3.92;;;1.70;;
12900;SDS011;6518;50.930;5.344;2022-07-10T10:01:32;4.50;;;1.60;;
12900;SDS011;6518;50.930;5.344;2022-07-10T10:04:00;4.47;;;1.67;;
12900;SDS011;6518;50.930;5.344;2022-07-10T10:06:29;4.60;;;1.67;;
12900;SDS011;6518;50.930;5.344;2022-07-10T10:08:58;5.38;;;1.63;;
12900;SDS011;6518;50.930;5.344;2022-07-10T10:11:30;3.92;;;1.70;;
12900;SDS011;6518;50.930;5.344;2022-07-10T10:14:00;5.28;;;1.80;;
12900;SDS011;6518;50.930;5.344;2022-07-10T10:16:28;6.20;;;1.92;;
12900;SDS011;6518;50.930;5.344;2022-07-10T10:18:57;4.47;;;1.92;;
12900;SDS011;6518;50.930;5.344;2022-07-10T10:21:43;5.80;;;2.40;;
12900;SDS011;6518;50.930;5.344;2022-07-10T10:24:10;3.63;;;1.98;;
12900;SDS011;6518;50.930;5.344;2022-07-10T10:26:39;4.25;;;1.60;;
12900;SDS011;6518;50.930;5.344;2022-07-10T10:29:07;4.93;;;1.70;;
12900;SDS011;6518;50.930;5.344;2022-07-10T10:31:35;3.80;;;1.58;;
12900;SDS011;6518;50.930;5.344;2022-07-10T10:34:06;4.63;;;1.90;;
12900;SDS011;6518;50.930;5.344;2022-07-10T10:39:16;4.38;;;1.60;;
12900;SDS011;6518;50.930;5.344;2022-07-10T10:41:47;6.13;;;1.67;;
12900;SDS011;6518;50.930;5.344;2022-07-10T10:44:19;5.25;;;1.80;;
12900;SDS011;6518;50.930;5.344;2022-07-10T10:46:54;4.30;;;1.80;;
12900;SDS011;6518;50.930;5.344;2022-07-10T10:49:46;5.05;;;1.77;;
12900;SDS011;6518;50.930;5.344;2022-07-10T10:52:14;6.38;;;2.10;;
12900;SDS011;6518;50.930;5.344;2022-07-10T10:57:41;4.22;;;1.98;;
12900;SDS011;6518;50.930;5.344;2022-07-10T11:00:32;7.82;;;2.40;;
12900;SDS011;6518;50.930;5.344;2022-07-10T11:03:12;2.45;;;1.40;;
12900;SDS011;6518;50.930;5.344;2022-07-10T11:05:48;5.03;;;2.08;;
12900;SDS011;6518;50.930;5.344;2022-07-10T11:14:04;4.25;;;1.73;;
12900;SDS011;6518;50.930;5.344;2022-07-10T11:16:32;4.65;;;1.77;;
12900;SDS011;6518;50.930;5.344;2022-07-10T11:19:00;6.05;;;1.80;;
12900;SDS011;6518;50.930;5.344;2022-07-10T11:21:32;7.22;;;2.08;;
12900;SDS011;6518;50.930;5.344;2022-07-10T11:24:12;3.58;;;1.63;;
12900;SDS011;6518;50.930;5.344;2022-07-10T11:26:54;6.15;;;1.70;;
12900;SDS011;6518;50.930;5.344;2022-07-10T11:29:25;6.38;;;1.88;;
12900;SDS011;6518;50.930;5.344;2022-07-10T11:31:52;4.57;;;1.88;;
12900;SDS011;6518;50.930;5.344;2022-07-10T11:34:19;5.90;;;2.45;;
12900;SDS011;6518;50.930;5.344;2022-07-10T11:36:49;6.07;;;1.92;;
12900;SDS011;6518;50.930;5.344;2022-07-10T11:39:16;3.70;;;1.60;;
12900;SDS011;6518;50.930;5.344;2022-07-10T11:41:43;5.68;;;1.92;;
12900;SDS011;6518;50.930;5.344;2022-07-10T11:44:13;6.50;;;1.98;;
12900;SDS011;6518;50.930;5.344;2022-07-10T11:46:40;4.15;;;1.90;;
12900;SDS011;6518;50.930;5.344;2022-07-10T11:49:09;5.15;;;2.15;;
12900;SDS011;6518;50.930;5.344;2022-07-10T11:51:37;4.25;;;2.10;;
12900;SDS011;6518;50.930;5.344;2022-07-10T11:54:06;4.45;;;2.08;;
12900;SDS011;6518;50.930;5.344;2022-07-10T11:56:36;6.32;;;1.85;;
12900;SDS011;6518;50.930;5.344;2022-07-10T11:59:07;5.55;;;2.03;;
12900;SDS011;6518;50.930;5.344;2022-07-10T12:01:43;4.10;;;2.30;;
12900;SDS011;6518;50.930;5.344;2022-07-10T12:04:12;6.65;;;2.65;;
12900;SDS011;6518;50.930;5.344;2022-07-10T12:06:41;3.00;;;2.13;;
12900;SDS011;6518;50.930;5.344;2022-07-10T12:09:10;3.03;;;1.73;;
12900;SDS011;6518;50.930;5.344;2022-07-10T12:11:39;5.72;;;2.08;;
12900;SDS011;6518;50.930;5.344;2022-07-10T12:14:08;6.20;;;2.10;;
12900;SDS011;6518;50.930;5.344;2022-07-10T12:16:37;5.47;;;2.03;;
12900;SDS011;6518;50.930;5.344;2022-07-10T12:19:05;3.33;;;1.95;;
12900;SDS011;6518;50.930;5.344;2022-07-10T12:21:32;5.95;;;2.40;;
12900;SDS011;6518;50.930;5.344;2022-07-10T12:24:00;4.45;;;2.28;;
12900;SDS011;6518;50.930;5.344;2022-07-10T12:26:32;6.13;;;2.08;;
12900;SDS011;6518;50.930;5.344;2022-07-10T12:29:00;3.15;;;2.05;;
12900;SDS011;6518;50.930;5.344;2022-07-10T12:31:27;4.15;;;2.08;;
12900;SDS011;6518;50.930;5.344;2022-07-10T12:33:57;5.68;;;2.58;;
12900;SDS011;6518;50.930;5.344;2022-07-10T12:36:40;4.25;;;2.30;;
12900;SDS011;6518;50.930;5.344;2022-07-10T12:39:11;3.38;;;2.38;;
12900;SDS011;6518;50.930;5.344;2022-07-10T12:41:59;5.78;;;2.30;;
12900;SDS011;6518;50.930;5.344;2022-07-10T12:44:37;4.13;;;2.42;;
12900;SDS011;6518;50.930;5.344;2022-07-10T12:47:06;4.35;;;2.33;;
12900;SDS011;6518;50.930;5.344;2022-07-10T12:49:51;6.47;;;2.30;;
12900;SDS011;6518;50.930;5.344;2022-07-10T12:52:23;6.13;;;2.40;;
12900;SDS011;6518;50.930;5.344;2022-07-10T12:55:04;4.05;;;2.05;;
12900;SDS011;6518;50.930;5.344;2022-07-10T12:57:46;3.83;;;2.10;;
12900;SDS011;6518;50.930;5.344;2022-07-10T13:00:19;6.60;;;2.60;;
12900;SDS011;6518;50.930;5.344;2022-07-10T13:02:47;4.43;;;2.50;;
12900;SDS011;6518;50.930;5.344;2022-07-10T13:05:25;4.78;;;2.25;;
12900;SDS011;6518;50.930;5.344;2022-07-10T13:07:53;4.28;;;2.28;;
12900;SDS011;6518;50.930;5.344;2022-07-10T13:10:31;5.15;;;2.67;;
12900;SDS011;6518;50.930;5.344;2022-07-10T13:13:00;4.97;;;2.35;;
12900;SDS011;6518;50.930;5.344;2022-07-10T13:15:27;5.15;;;2.60;;
12900;SDS011;6518;50.930;5.344;2022-07-10T13:17:54;3.83;;;2.10;;
12900;SDS011;6518;50.930;5.344;2022-07-10T13:20:21;3.88;;;2.33;;
12900;SDS011;6518;50.930;5.344;2022-07-10T13:22:48;4.38;;;2.42;;
12900;SDS011;6518;50.930;5.344;2022-07-10T13:25:15;4.43;;;2.35;;
12900;SDS011;6518;50.930;5.344;2022-07-10T13:27:41;4.38;;;2.20;;
12900;SDS011;6518;50.930;5.344;2022-07-10T13:30:10;4.68;;;2.00;;
12900;SDS011;6518;50.930;5.344;2022-07-10T13:32:37;5.35;;;2.20;;
12900;SDS011;6518;50.930;5.344;2022-07-10T13:35:05;4.30;;;2.00;;
12900;SDS011;6518;50.930;5.344;2022-07-10T13:37:32;8.07;;;2.95;;
12900;SDS011;6518;50.930;5.344;2022-07-10T13:39:59;3.63;;;1.95;;
12900;SDS011;6518;50.930;5.344;2022-07-10T13:42:25;2.90;;;1.75;;
12900;SDS011;6518;50.930;5.344;2022-07-10T13:44:53;3.35;;;2.05;;
12900;SDS011;6518;50.930;5.344;2022-07-10T13:47:21;4.63;;;1.80;;
12900;SDS011;6518;50.930;5.344;2022-07-10T13:49:48;4.05;;;1.80;;
12900;SDS011;6518;50.930;5.344;2022-07-10T13:52:15;3.70;;;2.00;;
12900;SDS011;6518;50.930;5.344;2022-07-10T13:54:42;3.83;;;1.92;;
12900;SDS011;6518;50.930;5.344;2022-07-10T13:57:09;5.13;;;2.10;;
12900;SDS011;6518;50.930;5.344;2022-07-10T13:59:36;3.38;;;1.85;;
12900;SDS011;6518;50.930;5.344;2022-07-10T14:02:03;3.65;;;1.60;;
12900;SDS011;6518;50.930;5.344;2022-07-10T14:04:32;3.05;;;1.83;;
12900;SDS011;6518;50.930;5.344;2022-07-10T14:06:59;2.67;;;1.60;;
12900;SDS011;6518;50.930;5.344;2022-07-10T14:09:25;3.45;;;2.10;;
12900;SDS011;6518;50.930;5.344;2022-07-10T14:11:53;2.45;;;1.63;;
12900;SDS011;6518;50.930;5.344;2022-07-10T14:14:20;3.28;;;1.83;;
12900;SDS011;6518;50.930;5.344;2022-07-10T14:16:48;3.47;;;1.70;;
12900;SDS011;6518;50.930;5.344;2022-07-10T14:19:16;4.32;;;1.95;;
12900;SDS011;6518;50.930;5.344;2022-07-10T14:21:45;3.55;;;1.80;;
12900;SDS011;6518;50.930;5.344;2022-07-10T14:24:12;4.40;;;1.77;;
12900;SDS011;6518;50.930;5.344;2022-07-10T14:26:38;4.22;;;2.13;;
12900;SDS011;6518;50.930;5.344;2022-07-10T14:29:05;3.70;;;1.92;;
12900;SDS011;6518;50.930;5.344;2022-07-10T14:31:32;4.00;;;1.70;;
12900;SDS011;6518;50.930;5.344;2022-07-10T14:33:59;3.38;;;1.52;;
12900;SDS011;6518;50.930;5.344;2022-07-10T14:36:26;2.88;;;1.55;;
12900;SDS011;6518;50.930;5.344;2022-07-10T14:38:55;4.05;;;2.00;;
12900;SDS011;6518;50.930;5.344;2022-07-10T14:41:23;4.68;;;1.90;;
12900;SDS011;6518;50.930;5.344;2022-07-10T14:43:50;5.30;;;1.70;;
12900;SDS011;6518;50.930;5.344;2022-07-10T14:46:17;4.07;;;1.60;;
12900;SDS011;6518;50.930;5.344;2022-07-10T14:48:44;4.55;;;1.60;;
12900;SDS011;6518;50.930;5.344;2022-07-10T14:51:11;4.03;;;1.85;;
12900;SDS011;6518;50.930;5.344;2022-07-10T14:53:38;4.78;;;2.00;;
12900;SDS011;6518;50.930;5.344;2022-07-10T14:56:08;2.30;;;1.40;;
12900;SDS011;6518;50.930;5.344;2022-07-10T14:58:35;4.82;;;1.75;;
12900;SDS011;6518;50.930;5.344;2022-07-10T15:01:02;3.08;;;1.60;;
12900;SDS011;6518;50.930;5.344;2022-07-10T15:03:29;3.20;;;1.58;;
12900;SDS011;6518;50.930;5.344;2022-07-10T15:05:56;3.38;;;1.70;;
12900;SDS011;6518;50.930;5.344;2022-07-10T15:08:23;4.15;;;2.22;;
12900;SDS011;6518;50.930;5.344;2022-07-10T15:10:50;3.13;;;1.80;;
12900;SDS011;6518;50.930;5.344;2022-07-10T15:13:19;3.20;;;1.80;;
12900;SDS011;6518;50.930;5.344;2022-07-10T15:15:46;3.38;;;1.75;;
12900;SDS011;6518;50.930;5.344;2022-07-10T15:18:14;3.85;;;1.83;;
12900;SDS011;6518;50.930;5.344;2022-07-10T15:20:41;3.67;;;1.88;;
12900;SDS011;6518;50.930;5.344;2022-07-10T15:23:08;3.50;;;1.58;;
12900;SDS011;6518;50.930;5.344;2022-07-10T15:25:35;5.63;;;1.95;;